Weather at Al-Jawf Domestic Airport

Public forecast

Using degrees Celsius for public forecast. Weather courtesy of forecast.io.

Current aviation weather report (METAR) for Al-Jawf Domestic Airport

Retrieved 2022/01/25 14:00 UTC (31 minutes ago):

OESK 251400Z 13009KT CAVOK 18/M08 Q1018

Aviation forecast (TAF) for Al-Jawf Domestic Airport

Retrieved 2022/01/25 12:03 UTC (2 hours ago):

TAF OESK 251100Z 2512/2618 14014KT CAVOK BECMG 2518/2520 VRB03KT BECMG 2606/2608 26014KT